sensor_id;sensor_type;location;lat;lon;timestamp;P1;durP1;ratioP1;P2;durP2;ratioP2
12248;SDS011;6187;50.778;6.142;2022-12-07T00:01:16;11.03;;;10.27;;
12248;SDS011;6187;50.778;6.142;2022-12-07T00:03:45;10.93;;;10.13;;
12248;SDS011;6187;50.778;6.142;2022-12-07T00:06:16;11.57;;;10.83;;
12248;SDS011;6187;50.778;6.142;2022-12-07T00:08:45;11.73;;;10.93;;
12248;SDS011;6187;50.778;6.142;2022-12-07T00:11:14;12.30;;;11.40;;
12248;SDS011;6187;50.778;6.142;2022-12-07T00:13:43;12.03;;;11.17;;
12248;SDS011;6187;50.778;6.142;2022-12-07T00:16:13;11.93;;;10.93;;
12248;SDS011;6187;50.778;6.142;2022-12-07T00:18:42;11.73;;;10.93;;
12248;SDS011;6187;50.778;6.142;2022-12-07T00:21:12;11.50;;;10.70;;
12248;SDS011;6187;50.778;6.142;2022-12-07T00:23:42;11.57;;;10.67;;
12248;SDS011;6187;50.778;6.142;2022-12-07T00:26:11;12.30;;;11.50;;
12248;SDS011;6187;50.778;6.142;2022-12-07T00:28:40;11.83;;;11.00;;
12248;SDS011;6187;50.778;6.142;2022-12-07T00:31:10;11.50;;;10.70;;
12248;SDS011;6187;50.778;6.142;2022-12-07T00:33:39;11.57;;;10.77;;
12248;SDS011;6187;50.778;6.142;2022-12-07T00:36:08;11.73;;;10.93;;
12248;SDS011;6187;50.778;6.142;2022-12-07T00:38:37;10.90;;;10.20;;
12248;SDS011;6187;50.778;6.142;2022-12-07T00:41:10;11.40;;;10.60;;
12248;SDS011;6187;50.778;6.142;2022-12-07T00:43:39;12.03;;;11.23;;
12248;SDS011;6187;50.778;6.142;2022-12-07T00:46:08;11.37;;;10.57;;
12248;SDS011;6187;50.778;6.142;2022-12-07T00:48:37;10.93;;;10.23;;
12248;SDS011;6187;50.778;6.142;2022-12-07T00:51:07;10.77;;;10.17;;
12248;SDS011;6187;50.778;6.142;2022-12-07T00:53:36;11.30;;;10.40;;
12248;SDS011;6187;50.778;6.142;2022-12-07T00:56:10;11.27;;;10.47;;
12248;SDS011;6187;50.778;6.142;2022-12-07T00:58:39;10.77;;;10.07;;
12248;SDS011;6187;50.778;6.142;2022-12-07T01:01:08;10.77;;;9.97;;
12248;SDS011;6187;50.778;6.142;2022-12-07T01:03:38;10.80;;;10.00;;
12248;SDS011;6187;50.778;6.142;2022-12-07T01:06:07;9.87;;;9.27;;
12248;SDS011;6187;50.778;6.142;2022-12-07T01:08:36;9.90;;;9.30;;
12248;SDS011;6187;50.778;6.142;2022-12-07T01:11:05;10.40;;;9.70;;
12248;SDS011;6187;50.778;6.142;2022-12-07T01:13:36;10.67;;;9.97;;
12248;SDS011;6187;50.778;6.142;2022-12-07T01:16:05;10.03;;;9.43;;
12248;SDS011;6187;50.778;6.142;2022-12-07T01:18:35;10.10;;;9.37;;
12248;SDS011;6187;50.778;6.142;2022-12-07T01:21:05;10.23;;;9.53;;
12248;SDS011;6187;50.778;6.142;2022-12-07T01:23:34;9.23;;;8.60;;
12248;SDS011;6187;50.778;6.142;2022-12-07T01:26:04;9.27;;;8.67;;
12248;SDS011;6187;50.778;6.142;2022-12-07T01:28:32;9.20;;;8.60;;
12248;SDS011;6187;50.778;6.142;2022-12-07T01:31:03;8.87;;;8.27;;
12248;SDS011;6187;50.778;6.142;2022-12-07T01:33:33;8.00;;;7.50;;
12248;SDS011;6187;50.778;6.142;2022-12-07T01:36:03;8.37;;;7.83;;
12248;SDS011;6187;50.778;6.142;2022-12-07T01:38:32;9.20;;;8.57;;
12248;SDS011;6187;50.778;6.142;2022-12-07T01:41:01;9.20;;;8.60;;
12248;SDS011;6187;50.778;6.142;2022-12-07T01:43:30;8.30;;;7.80;;
12248;SDS011;6187;50.778;6.142;2022-12-07T01:46:00;8.83;;;8.33;;
12248;SDS011;6187;50.778;6.142;2022-12-07T01:48:30;9.30;;;8.70;;
12248;SDS011;6187;50.778;6.142;2022-12-07T01:51:00;9.23;;;8.63;;
12248;SDS011;6187;50.778;6.142;2022-12-07T01:53:29;11.00;;;10.20;;
12248;SDS011;6187;50.778;6.142;2022-12-07T01:55:59;11.13;;;10.40;;
12248;SDS011;6187;50.778;6.142;2022-12-07T01:58:27;12.03;;;11.23;;
12248;SDS011;6187;50.778;6.142;2022-12-07T02:00:56;12.40;;;11.50;;
12248;SDS011;6187;50.778;6.142;2022-12-07T02:03:26;12.03;;;11.23;;
12248;SDS011;6187;50.778;6.142;2022-12-07T02:05:57;12.50;;;11.60;;
12248;SDS011;6187;50.778;6.142;2022-12-07T02:08:26;13.53;;;12.63;;
12248;SDS011;6187;50.778;6.142;2022-12-07T02:10:55;12.33;;;11.50;;
12248;SDS011;6187;50.778;6.142;2022-12-07T02:13:24;14.30;;;13.20;;
12248;SDS011;6187;50.778;6.142;2022-12-07T02:16:04;13.90;;;13.00;;
12248;SDS011;6187;50.778;6.142;2022-12-07T02:18:39;14.77;;;13.67;;
12248;SDS011;6187;50.778;6.142;2022-12-07T02:21:11;14.67;;;13.67;;
12248;SDS011;6187;50.778;6.142;2022-12-07T02:23:45;14.83;;;13.80;;
12248;SDS011;6187;50.778;6.142;2022-12-07T02:26:35;14.77;;;13.77;;
12248;SDS011;6187;50.778;6.142;2022-12-07T02:29:12;14.73;;;13.63;;
12248;SDS011;6187;50.778;6.142;2022-12-07T02:31:43;14.40;;;13.40;;
12248;SDS011;6187;50.778;6.142;2022-12-07T02:34:14;15.57;;;14.47;;
12248;SDS011;6187;50.778;6.142;2022-12-07T02:36:49;14.77;;;13.50;;
12248;SDS011;6187;50.778;6.142;2022-12-07T02:39:23;14.67;;;13.57;;
12248;SDS011;6187;50.778;6.142;2022-12-07T02:41:55;14.83;;;13.63;;
12248;SDS011;6187;50.778;6.142;2022-12-07T02:44:27;14.63;;;13.57;;
12248;SDS011;6187;50.778;6.142;2022-12-07T02:46:57;13.83;;;12.83;;
12248;SDS011;6187;50.778;6.142;2022-12-07T02:49:26;14.13;;;13.13;;
12248;SDS011;6187;50.778;6.142;2022-12-07T02:51:56;14.13;;;13.07;;
12248;SDS011;6187;50.778;6.142;2022-12-07T02:54:24;14.13;;;13.10;;
12248;SDS011;6187;50.778;6.142;2022-12-07T02:56:54;13.77;;;12.87;;
12248;SDS011;6187;50.778;6.142;2022-12-07T02:59:29;13.83;;;12.87;;
12248;SDS011;6187;50.778;6.142;2022-12-07T03:02:03;13.00;;;12.10;;
12248;SDS011;6187;50.778;6.142;2022-12-07T03:04:39;13.30;;;12.40;;
12248;SDS011;6187;50.778;6.142;2022-12-07T03:07:11;12.33;;;11.53;;
12248;SDS011;6187;50.778;6.142;2022-12-07T03:09:43;12.50;;;11.60;;
12248;SDS011;6187;50.778;6.142;2022-12-07T03:12:14;12.97;;;12.03;;
12248;SDS011;6187;50.778;6.142;2022-12-07T03:14:47;13.13;;;12.23;;
12248;SDS011;6187;50.778;6.142;2022-12-07T03:17:19;13.63;;;12.57;;
12248;SDS011;6187;50.778;6.142;2022-12-07T03:19:50;12.70;;;11.80;;
12248;SDS011;6187;50.778;6.142;2022-12-07T03:22:21;13.10;;;12.20;;
12248;SDS011;6187;50.778;6.142;2022-12-07T03:24:51;13.60;;;12.50;;
12248;SDS011;6187;50.778;6.142;2022-12-07T03:27:21;12.93;;;12.03;;
12248;SDS011;6187;50.778;6.142;2022-12-07T03:29:53;12.47;;;11.67;;
12248;SDS011;6187;50.778;6.142;2022-12-07T03:32:25;12.80;;;11.90;;
12248;SDS011;6187;50.778;6.142;2022-12-07T03:34:57;12.53;;;11.63;;
12248;SDS011;6187;50.778;6.142;2022-12-07T03:37:29;11.80;;;11.00;;
12248;SDS011;6187;50.778;6.142;2022-12-07T03:40:02;12.43;;;11.53;;
12248;SDS011;6187;50.778;6.142;2022-12-07T03:42:32;11.97;;;11.07;;
12248;SDS011;6187;50.778;6.142;2022-12-07T03:45:02;12.00;;;11.20;;
12248;SDS011;6187;50.778;6.142;2022-12-07T03:47:33;12.00;;;11.10;;
12248;SDS011;6187;50.778;6.142;2022-12-07T03:50:02;12.30;;;11.40;;
12248;SDS011;6187;50.778;6.142;2022-12-07T03:52:34;12.37;;;11.47;;
12248;SDS011;6187;50.778;6.142;2022-12-07T03:55:05;12.13;;;11.23;;
12248;SDS011;6187;50.778;6.142;2022-12-07T03:57:34;12.30;;;11.50;;
12248;SDS011;6187;50.778;6.142;2022-12-07T04:00:06;12.40;;;11.50;;
12248;SDS011;6187;50.778;6.142;2022-12-07T04:02:35;12.47;;;11.47;;
12248;SDS011;6187;50.778;6.142;2022-12-07T04:05:04;12.07;;;11.20;;
12248;SDS011;6187;50.778;6.142;2022-12-07T04:07:33;11.27;;;10.57;;
12248;SDS011;6187;50.778;6.142;2022-12-07T04:10:01;10.93;;;10.23;;
12248;SDS011;6187;50.778;6.142;2022-12-07T04:12:31;12.23;;;11.43;;
12248;SDS011;6187;50.778;6.142;2022-12-07T04:14:59;11.73;;;10.93;;
12248;SDS011;6187;50.778;6.142;2022-12-07T04:17:29;12.03;;;11.23;;
12248;SDS011;6187;50.778;6.142;2022-12-07T04:19:58;12.40;;;11.50;;
12248;SDS011;6187;50.778;6.142;2022-12-07T04:22:27;11.63;;;10.93;;
12248;SDS011;6187;50.778;6.142;2022-12-07T04:24:55;11.10;;;10.30;;
12248;SDS011;6187;50.778;6.142;2022-12-07T04:27:24;11.83;;;10.93;;
12248;SDS011;6187;50.778;6.142;2022-12-07T04:29:53;11.57;;;10.87;;
12248;SDS011;6187;50.778;6.142;2022-12-07T04:32:22;11.87;;;11.07;;
12248;SDS011;6187;50.778;6.142;2022-12-07T04:34:52;12.63;;;11.73;;
12248;SDS011;6187;50.778;6.142;2022-12-07T04:37:21;11.90;;;11.00;;
12248;SDS011;6187;50.778;6.142;2022-12-07T04:39:50;12.10;;;11.30;;
12248;SDS011;6187;50.778;6.142;2022-12-07T04:42:19;12.17;;;11.37;;
12248;SDS011;6187;50.778;6.142;2022-12-07T04:44:48;11.63;;;10.90;;
12248;SDS011;6187;50.778;6.142;2022-12-07T04:47:17;11.73;;;10.93;;
12248;SDS011;6187;50.778;6.142;2022-12-07T04:49:45;11.83;;;11.03;;
12248;SDS011;6187;50.778;6.142;2022-12-07T04:52:15;11.47;;;10.53;;
12248;SDS011;6187;50.778;6.142;2022-12-07T04:54:44;12.10;;;11.20;;
12248;SDS011;6187;50.778;6.142;2022-12-07T04:57:13;11.93;;;11.13;;
12248;SDS011;6187;50.778;6.142;2022-12-07T04:59:41;12.10;;;11.30;;
12248;SDS011;6187;50.778;6.142;2022-12-07T05:02:11;11.70;;;10.80;;
12248;SDS011;6187;50.778;6.142;2022-12-07T05:04:40;11.30;;;10.50;;
12248;SDS011;6187;50.778;6.142;2022-12-07T05:07:09;11.23;;;10.53;;
12248;SDS011;6187;50.778;6.142;2022-12-07T05:09:39;11.67;;;10.77;;
12248;SDS011;6187;50.778;6.142;2022-12-07T05:12:07;11.30;;;10.50;;
12248;SDS011;6187;50.778;6.142;2022-12-07T05:14:36;11.80;;;11.00;;
12248;SDS011;6187;50.778;6.142;2022-12-07T05:17:04;11.77;;;10.87;;
12248;SDS011;6187;50.778;6.142;2022-12-07T05:19:33;11.97;;;11.07;;
12248;SDS011;6187;50.778;6.142;2022-12-07T05:22:02;11.77;;;10.87;;
12248;SDS011;6187;50.778;6.142;2022-12-07T05:24:30;12.37;;;11.47;;
12248;SDS011;6187;50.778;6.142;2022-12-07T05:27:00;11.80;;;10.90;;
12248;SDS011;6187;50.778;6.142;2022-12-07T05:29:29;11.30;;;10.50;;
12248;SDS011;6187;50.778;6.142;2022-12-07T05:31:57;10.50;;;9.80;;
12248;SDS011;6187;50.778;6.142;2022-12-07T05:34:26;11.33;;;10.47;;
12248;SDS011;6187;50.778;6.142;2022-12-07T05:36:55;11.27;;;10.47;;
12248;SDS011;6187;50.778;6.142;2022-12-07T05:39:23;10.80;;;9.90;;
12248;SDS011;6187;50.778;6.142;2022-12-07T05:41:52;9.70;;;9.00;;
12248;SDS011;6187;50.778;6.142;2022-12-07T05:44:40;10.57;;;9.77;;
12248;SDS011;6187;50.778;6.142;2022-12-07T05:47:09;9.90;;;9.20;;
12248;SDS011;6187;50.778;6.142;2022-12-07T05:49:38;10.23;;;9.53;;
12248;SDS011;6187;50.778;6.142;2022-12-07T05:52:07;9.17;;;8.57;;
12248;SDS011;6187;50.778;6.142;2022-12-07T05:54:36;9.43;;;8.73;;
12248;SDS011;6187;50.778;6.142;2022-12-07T05:57:04;8.50;;;8.00;;
12248;SDS011;6187;50.778;6.142;2022-12-07T05:59:33;8.43;;;7.83;;
12248;SDS011;6187;50.778;6.142;2022-12-07T06:02:02;9.00;;;8.40;;
12248;SDS011;6187;50.778;6.142;2022-12-07T06:04:32;9.03;;;8.43;;
12248;SDS011;6187;50.778;6.142;2022-12-07T06:07:01;8.57;;;7.97;;
12248;SDS011;6187;50.778;6.142;2022-12-07T06:09:30;7.07;;;6.67;;
12248;SDS011;6187;50.778;6.142;2022-12-07T06:11:59;7.70;;;7.20;;
12248;SDS011;6187;50.778;6.142;2022-12-07T06:14:45;7.70;;;7.20;;
12248;SDS011;6187;50.778;6.142;2022-12-07T06:17:15;7.07;;;6.57;;
12248;SDS011;6187;50.778;6.142;2022-12-07T06:19:44;7.87;;;7.37;;
12248;SDS011;6187;50.778;6.142;2022-12-07T06:22:13;8.90;;;8.30;;
12248;SDS011;6187;50.778;6.142;2022-12-07T06:24:43;8.63;;;8.13;;
12248;SDS011;6187;50.778;6.142;2022-12-07T06:27:11;8.80;;;8.20;;
12248;SDS011;6187;50.778;6.142;2022-12-07T06:29:40;8.80;;;8.20;;
12248;SDS011;6187;50.778;6.142;2022-12-07T06:32:09;9.50;;;8.90;;
12248;SDS011;6187;50.778;6.142;2022-12-07T06:34:40;9.20;;;8.60;;
12248;SDS011;6187;50.778;6.142;2022-12-07T06:37:08;9.13;;;8.47;;
12248;SDS011;6187;50.778;6.142;2022-12-07T06:39:37;9.87;;;9.17;;
12248;SDS011;6187;50.778;6.142;2022-12-07T06:42:05;10.00;;;9.23;;
12248;SDS011;6187;50.778;6.142;2022-12-07T06:44:34;9.20;;;8.60;;
12248;SDS011;6187;50.778;6.142;2022-12-07T06:47:03;9.57;;;8.93;;
12248;SDS011;6187;50.778;6.142;2022-12-07T06:49:53;9.30;;;8.70;;
12248;SDS011;6187;50.778;6.142;2022-12-07T06:52:21;10.30;;;9.57;;
12248;SDS011;6187;50.778;6.142;2022-12-07T06:54:50;9.87;;;9.20;;
12248;SDS011;6187;50.778;6.142;2022-12-07T06:57:19;10.17;;;9.37;;
12248;SDS011;6187;50.778;6.142;2022-12-07T06:59:47;9.73;;;9.03;;
12248;SDS011;6187;50.778;6.142;2022-12-07T07:02:16;10.00;;;9.27;;
12248;SDS011;6187;50.778;6.142;2022-12-07T07:04:44;10.43;;;9.73;;
12248;SDS011;6187;50.778;6.142;2022-12-07T07:07:14;9.00;;;8.40;;
12248;SDS011;6187;50.778;6.142;2022-12-07T07:09:43;9.27;;;8.57;;
12248;SDS011;6187;50.778;6.142;2022-12-07T07:12:11;9.97;;;9.17;;
12248;SDS011;6187;50.778;6.142;2022-12-07T07:14:40;9.80;;;9.00;;
12248;SDS011;6187;50.778;6.142;2022-12-07T07:17:09;9.90;;;9.20;;
12248;SDS011;6187;50.778;6.142;2022-12-07T07:19:38;8.80;;;8.10;;
12248;SDS011;6187;50.778;6.142;2022-12-07T07:22:07;8.37;;;7.87;;
12248;SDS011;6187;50.778;6.142;2022-12-07T07:24:36;9.93;;;9.23;;
12248;SDS011;6187;50.778;6.142;2022-12-07T07:27:05;9.83;;;9.13;;
12248;SDS011;6187;50.778;6.142;2022-12-07T07:29:34;9.93;;;9.23;;
12248;SDS011;6187;50.778;6.142;2022-12-07T07:32:02;10.47;;;9.77;;
12248;SDS011;6187;50.778;6.142;2022-12-07T07:34:32;9.40;;;8.80;;
12248;SDS011;6187;50.778;6.142;2022-12-07T07:37:01;10.37;;;9.57;;
12248;SDS011;6187;50.778;6.142;2022-12-07T07:39:30;10.67;;;9.87;;
12248;SDS011;6187;50.778;6.142;2022-12-07T07:42:00;10.77;;;9.97;;
12248;SDS011;6187;50.778;6.142;2022-12-07T07:44:28;11.30;;;10.47;;
12248;SDS011;6187;50.778;6.142;2022-12-07T07:47:01;11.73;;;10.90;;
12248;SDS011;6187;50.778;6.142;2022-12-07T07:49:29;10.60;;;9.90;;
12248;SDS011;6187;50.778;6.142;2022-12-07T07:51:58;10.63;;;9.87;;
12248;SDS011;6187;50.778;6.142;2022-12-07T07:54:27;9.87;;;9.17;;
12248;SDS011;6187;50.778;6.142;2022-12-07T07:56:55;10.37;;;9.67;;
12248;SDS011;6187;50.778;6.142;2022-12-07T07:59:25;11.27;;;10.37;;
12248;SDS011;6187;50.778;6.142;2022-12-07T08:01:54;11.20;;;10.40;;
12248;SDS011;6187;50.778;6.142;2022-12-07T08:04:23;10.77;;;10.07;;
12248;SDS011;6187;50.778;6.142;2022-12-07T08:06:51;10.80;;;10.00;;
12248;SDS011;6187;50.778;6.142;2022-12-07T08:09:20;10.30;;;9.50;;
12248;SDS011;6187;50.778;6.142;2022-12-07T08:11:49;9.70;;;9.03;;
12248;SDS011;6187;50.778;6.142;2022-12-07T08:14:17;9.60;;;8.90;;
12248;SDS011;6187;50.778;6.142;2022-12-07T08:16:47;9.23;;;8.63;;
12248;SDS011;6187;50.778;6.142;2022-12-07T08:19:16;8.10;;;7.60;;
12248;SDS011;6187;50.778;6.142;2022-12-07T08:21:44;7.90;;;7.40;;
12248;SDS011;6187;50.778;6.142;2022-12-07T08:24:13;7.37;;;6.87;;
12248;SDS011;6187;50.778;6.142;2022-12-07T08:26:42;7.60;;;7.00;;
12248;SDS011;6187;50.778;6.142;2022-12-07T08:29:10;6.90;;;6.50;;
12248;SDS011;6187;50.778;6.142;2022-12-07T08:31:39;7.47;;;6.93;;
12248;SDS011;6187;50.778;6.142;2022-12-07T08:34:10;6.60;;;6.20;;
12248;SDS011;6187;50.778;6.142;2022-12-07T08:36:39;6.73;;;6.30;;
12248;SDS011;6187;50.778;6.142;2022-12-07T08:39:08;6.37;;;5.97;;
12248;SDS011;6187;50.778;6.142;2022-12-07T08:41:56;5.70;;;5.40;;
12248;SDS011;6187;50.778;6.142;2022-12-07T08:44:25;6.70;;;6.20;;
12248;SDS011;6187;50.778;6.142;2022-12-07T08:46:55;6.40;;;5.90;;
12248;SDS011;6187;50.778;6.142;2022-12-07T08:49:27;6.03;;;5.63;;
12248;SDS011;6187;50.778;6.142;2022-12-07T08:51:58;6.00;;;5.60;;
12248;SDS011;6187;50.778;6.142;2022-12-07T08:54:27;6.60;;;6.17;;
12248;SDS011;6187;50.778;6.142;2022-12-07T08:56:56;6.50;;;6.00;;
12248;SDS011;6187;50.778;6.142;2022-12-07T08:59:25;6.23;;;5.80;;
12248;SDS011;6187;50.778;6.142;2022-12-07T09:01:55;5.83;;;5.43;;
12248;SDS011;6187;50.778;6.142;2022-12-07T09:04:23;7.17;;;6.67;;
12248;SDS011;6187;50.778;6.142;2022-12-07T09:06:54;6.23;;;5.83;;
12248;SDS011;6187;50.778;6.142;2022-12-07T09:09:23;7.10;;;6.60;;
12248;SDS011;6187;50.778;6.142;2022-12-07T09:11:52;6.83;;;6.37;;
12248;SDS011;6187;50.778;6.142;2022-12-07T09:14:20;6.67;;;6.17;;
12248;SDS011;6187;50.778;6.142;2022-12-07T09:16:49;7.33;;;6.73;;
12248;SDS011;6187;50.778;6.142;2022-12-07T09:19:18;7.63;;;7.03;;
12248;SDS011;6187;50.778;6.142;2022-12-07T09:21:46;6.67;;;6.27;;
12248;SDS011;6187;50.778;6.142;2022-12-07T09:24:16;7.63;;;7.13;;
12248;SDS011;6187;50.778;6.142;2022-12-07T09:26:45;8.10;;;7.50;;
12248;SDS011;6187;50.778;6.142;2022-12-07T09:29:13;8.00;;;7.40;;
12248;SDS011;6187;50.778;6.142;2022-12-07T09:31:42;8.40;;;7.70;;
12248;SDS011;6187;50.778;6.142;2022-12-07T09:34:11;8.63;;;7.97;;
12248;SDS011;6187;50.778;6.142;2022-12-07T09:36:40;9.13;;;8.33;;
12248;SDS011;6187;50.778;6.142;2022-12-07T09:39:09;8.87;;;8.17;;
12248;SDS011;6187;50.778;6.142;2022-12-07T09:41:40;8.43;;;7.83;;
12248;SDS011;6187;50.778;6.142;2022-12-07T09:44:10;7.57;;;7.07;;
12248;SDS011;6187;50.778;6.142;2022-12-07T09:46:40;8.47;;;7.87;;
12248;SDS011;6187;50.778;6.142;2022-12-07T09:49:10;7.57;;;7.07;;
12248;SDS011;6187;50.778;6.142;2022-12-07T09:51:40;8.97;;;8.27;;
12248;SDS011;6187;50.778;6.142;2022-12-07T09:54:08;9.10;;;8.50;;
12248;SDS011;6187;50.778;6.142;2022-12-07T09:56:42;10.03;;;9.27;;
12248;SDS011;6187;50.778;6.142;2022-12-07T09:59:12;8.47;;;7.87;;
12248;SDS011;6187;50.778;6.142;2022-12-07T10:01:41;9.60;;;8.83;;
12248;SDS011;6187;50.778;6.142;2022-12-07T10:04:11;9.43;;;8.73;;
12248;SDS011;6187;50.778;6.142;2022-12-07T10:06:40;9.07;;;8.47;;
12248;SDS011;6187;50.778;6.142;2022-12-07T10:09:10;9.97;;;9.27;;
12248;SDS011;6187;50.778;6.142;2022-12-07T10:11:59;9.37;;;8.67;;
12248;SDS011;6187;50.778;6.142;2022-12-07T10:14:28;8.30;;;7.70;;
12248;SDS011;6187;50.778;6.142;2022-12-07T10:17:26;9.10;;;8.40;;
12248;SDS011;6187;50.778;6.142;2022-12-07T10:20:13;8.33;;;7.73;;
12248;SDS011;6187;50.778;6.142;2022-12-07T10:22:57;8.50;;;7.80;;
12248;SDS011;6187;50.778;6.142;2022-12-07T10:25:26;8.53;;;7.93;;
12248;SDS011;6187;50.778;6.142;2022-12-07T10:28:00;8.50;;;7.90;;
12248;SDS011;6187;50.778;6.142;2022-12-07T10:30:29;8.90;;;8.20;;
12248;SDS011;6187;50.778;6.142;2022-12-07T10:32:58;7.70;;;7.20;;
12248;SDS011;6187;50.778;6.142;2022-12-07T10:35:27;8.00;;;7.40;;
12248;SDS011;6187;50.778;6.142;2022-12-07T10:37:57;7.70;;;7.20;;
12248;SDS011;6187;50.778;6.142;2022-12-07T10:40:28;8.63;;;8.03;;
12248;SDS011;6187;50.778;6.142;2022-12-07T10:43:02;7.63;;;7.13;;
12248;SDS011;6187;50.778;6.142;2022-12-07T10:45:31;7.60;;;7.00;;
12248;SDS011;6187;50.778;6.142;2022-12-07T10:48:08;6.77;;;6.27;;
12248;SDS011;6187;50.778;6.142;2022-12-07T10:50:52;6.70;;;6.30;;
12248;SDS011;6187;50.778;6.142;2022-12-07T10:53:28;6.40;;;6.00;;
12248;SDS011;6187;50.778;6.142;2022-12-07T10:56:06;6.50;;;6.10;;
12248;SDS011;6187;50.778;6.142;2022-12-07T10:58:45;6.20;;;5.77;;
12248;SDS011;6187;50.778;6.142;2022-12-07T11:01:18;6.30;;;5.90;;
12248;SDS011;6187;50.778;6.142;2022-12-07T11:04:06;6.20;;;5.80;;
12248;SDS011;6187;50.778;6.142;2022-12-07T11:06:37;7.00;;;6.40;;
12248;SDS011;6187;50.778;6.142;2022-12-07T11:12:22;6.37;;;5.93;;
12248;SDS011;6187;50.778;6.142;2022-12-07T11:14:56;6.20;;;5.70;;
12248;SDS011;6187;50.778;6.142;2022-12-07T11:17:30;6.27;;;5.87;;
12248;SDS011;6187;50.778;6.142;2022-12-07T11:20:02;6.40;;;5.90;;
12248;SDS011;6187;50.778;6.142;2022-12-07T11:22:34;5.57;;;5.17;;
12248;SDS011;6187;50.778;6.142;2022-12-07T11:25:13;5.80;;;5.40;;
12248;SDS011;6187;50.778;6.142;2022-12-07T11:27:45;5.80;;;5.50;;
12248;SDS011;6187;50.778;6.142;2022-12-07T11:30:18;6.20;;;5.70;;
12248;SDS011;6187;50.778;6.142;2022-12-07T11:35:40;5.77;;;5.37;;
12248;SDS011;6187;50.778;6.142;2022-12-07T11:38:11;5.57;;;5.07;;
12248;SDS011;6187;50.778;6.142;2022-12-07T11:40:43;5.80;;;5.40;;
12248;SDS011;6187;50.778;6.142;2022-12-07T11:43:14;5.50;;;5.00;;
12248;SDS011;6187;50.778;6.142;2022-12-07T11:45:47;5.10;;;4.80;;
12248;SDS011;6187;50.778;6.142;2022-12-07T11:48:20;5.00;;;4.60;;
12248;SDS011;6187;50.778;6.142;2022-12-07T11:50:50;5.10;;;4.80;;
12248;SDS011;6187;50.778;6.142;2022-12-07T11:53:20;4.83;;;4.53;;
12248;SDS011;6187;50.778;6.142;2022-12-07T11:55:52;4.20;;;3.90;;
12248;SDS011;6187;50.778;6.142;2022-12-07T11:58:37;4.60;;;4.30;;
12248;SDS011;6187;50.778;6.142;2022-12-07T12:01:13;4.77;;;4.37;;
12248;SDS011;6187;50.778;6.142;2022-12-07T12:03:44;4.47;;;4.07;;
12248;SDS011;6187;50.778;6.142;2022-12-07T12:06:19;4.57;;;4.27;;
12248;SDS011;6187;50.778;6.142;2022-12-07T12:08:49;4.23;;;3.93;;
12248;SDS011;6187;50.778;6.142;2022-12-07T12:11:45;4.00;;;3.70;;
12248;SDS011;6187;50.778;6.142;2022-12-07T12:17:07;4.00;;;3.70;;
12248;SDS011;6187;50.778;6.142;2022-12-07T12:19:40;3.77;;;3.47;;
12248;SDS011;6187;50.778;6.142;2022-12-07T12:22:11;4.03;;;3.73;;
12248;SDS011;6187;50.778;6.142;2022-12-07T12:24:42;3.87;;;3.67;;
12248;SDS011;6187;50.778;6.142;2022-12-07T12:27:15;4.17;;;3.87;;
12248;SDS011;6187;50.778;6.142;2022-12-07T12:29:45;4.30;;;4.00;;
12248;SDS011;6187;50.778;6.142;2022-12-07T12:32:21;4.93;;;4.50;;
12248;SDS011;6187;50.778;6.142;2022-12-07T12:34:59;5.10;;;4.67;;
12248;SDS011;6187;50.778;6.142;2022-12-07T12:37:41;5.27;;;4.87;;
12248;SDS011;6187;50.778;6.142;2022-12-07T12:42:57;4.47;;;4.17;;
12248;SDS011;6187;50.778;6.142;2022-12-07T12:45:27;4.30;;;4.00;;
12248;SDS011;6187;50.778;6.142;2022-12-07T12:48:00;3.80;;;3.60;;
12248;SDS011;6187;50.778;6.142;2022-12-07T12:50:30;4.10;;;3.80;;
12248;SDS011;6187;50.778;6.142;2022-12-07T12:53:12;3.60;;;3.30;;
12248;SDS011;6187;50.778;6.142;2022-12-07T12:55:58;3.40;;;3.10;;
12248;SDS011;6187;50.778;6.142;2022-12-07T12:58:35;3.50;;;3.30;;
12248;SDS011;6187;50.778;6.142;2022-12-07T13:03:53;3.43;;;3.13;;
12248;SDS011;6187;50.778;6.142;2022-12-07T13:06:31;2.87;;;2.67;;
12248;SDS011;6187;50.778;6.142;2022-12-07T13:09:01;3.23;;;2.93;;
12248;SDS011;6187;50.778;6.142;2022-12-07T13:11:32;2.90;;;2.70;;
12248;SDS011;6187;50.778;6.142;2022-12-07T13:16:45;3.43;;;2.80;;
12248;SDS011;6187;50.778;6.142;2022-12-07T13:19:28;3.00;;;2.80;;
12248;SDS011;6187;50.778;6.142;2022-12-07T13:22:37;3.03;;;2.83;;
12248;SDS011;6187;50.778;6.142;2022-12-07T13:25:08;3.30;;;3.00;;
12248;SDS011;6187;50.778;6.142;2022-12-07T13:27:38;2.90;;;2.70;;
12248;SDS011;6187;50.778;6.142;2022-12-07T13:30:11;3.57;;;3.27;;
12248;SDS011;6187;50.778;6.142;2022-12-07T13:32:41;4.00;;;3.70;;
12248;SDS011;6187;50.778;6.142;2022-12-07T13:35:34;3.57;;;3.37;;
12248;SDS011;6187;50.778;6.142;2022-12-07T13:38:04;3.73;;;3.50;;
12248;SDS011;6187;50.778;6.142;2022-12-07T13:40:33;3.80;;;3.50;;
12248;SDS011;6187;50.778;6.142;2022-12-07T13:43:04;3.90;;;3.60;;
12248;SDS011;6187;50.778;6.142;2022-12-07T13:45:33;5.03;;;3.63;;
12248;SDS011;6187;50.778;6.142;2022-12-07T13:48:20;3.80;;;3.50;;
12248;SDS011;6187;50.778;6.142;2022-12-07T13:50:55;3.33;;;3.10;;
12248;SDS011;6187;50.778;6.142;2022-12-07T13:53:24;3.30;;;3.10;;
12248;SDS011;6187;50.778;6.142;2022-12-07T13:55:56;3.17;;;2.87;;
12248;SDS011;6187;50.778;6.142;2022-12-07T13:58:25;3.10;;;2.90;;
12248;SDS011;6187;50.778;6.142;2022-12-07T14:00:54;3.43;;;3.13;;
12248;SDS011;6187;50.778;6.142;2022-12-07T14:03:26;3.70;;;3.40;;
12248;SDS011;6187;50.778;6.142;2022-12-07T14:08:49;3.53;;;3.23;;
12248;SDS011;6187;50.778;6.142;2022-12-07T14:11:27;3.30;;;3.10;;
12248;SDS011;6187;50.778;6.142;2022-12-07T14:13:57;3.10;;;2.83;;
12248;SDS011;6187;50.778;6.142;2022-12-07T14:16:27;4.30;;;3.20;;
12248;SDS011;6187;50.778;6.142;2022-12-07T14:18:56;3.60;;;3.30;;
12248;SDS011;6187;50.778;6.142;2022-12-07T14:21:26;3.70;;;3.27;;
12248;SDS011;6187;50.778;6.142;2022-12-07T14:24:09;3.70;;;3.27;;
12248;SDS011;6187;50.778;6.142;2022-12-07T14:26:38;3.63;;;3.33;;
12248;SDS011;6187;50.778;6.142;2022-12-07T14:31:55;3.73;;;3.43;;
12248;SDS011;6187;50.778;6.142;2022-12-07T14:34:24;3.27;;;3.07;;
12248;SDS011;6187;50.778;6.142;2022-12-07T14:36:53;3.33;;;3.03;;
12248;SDS011;6187;50.778;6.142;2022-12-07T14:39:23;3.60;;;3.30;;
12248;SDS011;6187;50.778;6.142;2022-12-07T14:41:51;3.47;;;3.17;;
12248;SDS011;6187;50.778;6.142;2022-12-07T14:44:20;3.70;;;3.40;;
12248;SDS011;6187;50.778;6.142;2022-12-07T14:46:55;3.87;;;3.57;;
12248;SDS011;6187;50.778;6.142;2022-12-07T14:49:43;3.00;;;2.80;;
12248;SDS011;6187;50.778;6.142;2022-12-07T14:52:13;3.80;;;3.50;;
12248;SDS011;6187;50.778;6.142;2022-12-07T14:55:04;3.27;;;3.07;;
12248;SDS011;6187;50.778;6.142;2022-12-07T14:57:33;3.10;;;2.90;;
12248;SDS011;6187;50.778;6.142;2022-12-07T15:00:02;2.97;;;2.77;;
12248;SDS011;6187;50.778;6.142;2022-12-07T15:02:31;3.30;;;3.00;;
12248;SDS011;6187;50.778;6.142;2022-12-07T15:05:00;3.33;;;3.13;;
12248;SDS011;6187;50.778;6.142;2022-12-07T15:07:29;3.43;;;3.13;;
12248;SDS011;6187;50.778;6.142;2022-12-07T15:09:58;3.40;;;3.10;;
12248;SDS011;6187;50.778;6.142;2022-12-07T15:12:28;3.47;;;3.17;;
12248;SDS011;6187;50.778;6.142;2022-12-07T15:14:56;3.37;;;3.07;;
12248;SDS011;6187;50.778;6.142;2022-12-07T15:17:26;3.40;;;3.10;;
12248;SDS011;6187;50.778;6.142;2022-12-07T15:19:58;3.80;;;3.50;;
12248;SDS011;6187;50.778;6.142;2022-12-07T15:22:26;3.80;;;3.60;;
12248;SDS011;6187;50.778;6.142;2022-12-07T15:25:04;3.47;;;3.27;;
12248;SDS011;6187;50.778;6.142;2022-12-07T15:27:34;3.73;;;3.43;;
12248;SDS011;6187;50.778;6.142;2022-12-07T15:30:03;3.27;;;2.97;;
12248;SDS011;6187;50.778;6.142;2022-12-07T15:32:31;3.17;;;2.97;;
12248;SDS011;6187;50.778;6.142;2022-12-07T15:35:00;2.90;;;2.70;;
12248;SDS011;6187;50.778;6.142;2022-12-07T15:37:29;3.00;;;2.77;;